Terminal Aerodrome Forecast
Issued by NWS

Home | Current Version | Previous Version | Text Only | Print | Product List | Glossary On
Versions: 1 2 3 4 5 6 7 8 9 10 11 12 13 14
000
FTUS42 KTBW 292334
TAFLAL
TAF
KLAL 292334Z 3000/3024 VRB04KT P6SM VCTS SCT035CB SCT120 BKN250
      TEMPO 3000/3002 VRB15G25KT 3SM TSRA BKN025CB
     FM300200 VRB03KT 6SM BR FEW001 FEW025 BKN250
     FM301600 12008KT 6SM SHRA VCTS SCT018CB BKN040=

USA.gov is the U.S. government's official web portal to all federal, state and local government web resources and services.